Hewitt, Minnesota
Current Conditions -  °F | °C
As of 10:35 PM on Friday 19 Dec 2014 (Local Time) from KADC Reporting Station
Moderate Snow Moderate Snow  
Wind Chill: 21°   Ceiling: 600
Heat Index: 28°   Visibility: 4mi
Dew Point: 28°   Wind: 7mph
Humidity: 100%   Direction: 170°S
Pressure: 30.04"   Gusts: NA
Location:  46.33°N, 95.09°W
Report Text: KADC 200435Z AUTO 17006KT 4SM SN OVC006 M02/M02 A3004 RMK AO2
Loading
Personal Weather Stations






























Interactive Weather Map New forecast layout! Learn more

10-Day Weather Forecast

Advertisements
Track Severe Weather on mobile